Winside, NE

3:50 AM CDT en Agosto 27, 2014 (GMT -0500)
Sioux Gateway | Change Station
CLOSE
Current Station
Aeropuerto
Location: Sioux City,
Altura: 1102 ft
Estaciones meteorológicas cercanas

Alt 1102 ft 42.39 °N, 96.38 °W | Updated 58 minutes ago

Overcast
Nublado
65 ° F
Sensación térmica 65 ° F
N
4
Viento Variable Viento desde Este

Hoy
Alta -- | Baja -- ° F
--% Posibilidad de precipitaciones
Ayer
Alta -- | Baja -- ° F
Precip. -- pul
6:48 AM 8:10 PM
Creciente, 3% visible
Presión 30.12 pul
Visibilidad 10.0 Millas
Nubes Muy nublado 3500 ft
Muy nublado 5000 ft
Nublado 7500 ft
Punto de rocío 60 ° F
Humedad 84%
Precipitaciones 0.00 pul
Espesor de la nieve No disponible.
UV 0 de una escala de 12
Polen 7.30 de una escala de 12
Calidad del aire No disponible.
Flu Activity No disponible.
METAR KSUX 270752Z 08003KT 10SM BKN035 BKN050 OVC075 18/16 A3014 RMK AO2 SLP200 T01830156 $

More Conditions Fewer Conditions

Presión 30.12 pul
Visibilidad 10.0 Millas
Nubes Muy nublado 3500 ft
Muy nublado 5000 ft
Nublado 7500 ft
Punto de rocío 60 ° F
Humedad 84%
Precipitaciones 0.00 pul
Espesor de la nieve No disponible.
UV 0 de una escala de 12
Polen 7.30 de una escala de 12
Calidad del aire No disponible.
Flu Activity No disponible.
METAR KSUX 270752Z 08003KT 10SM BKN035 BKN050 OVC075 18/16 A3014 RMK AO2 SLP200 T01830156 $

More Conditions Fewer Conditions

10-Day Weather Forecast

Almanac

Astronomía

Aug. 27, 2014 Salida Puesta
Hora real 6:48 AM CDT 8:10 PM CDT
Crepúsculo civil 6:19 AM CDT 8:39 PM CDT
Crepúsculo náutico 5:44 AM CDT 9:14 PM CDT
Crepúsculo astronómico 5:07 AM CDT 9:51 PM CDT
Luna 8:49 AM CDT 9:00 PM CDT
Horas de luz 14h 19m
Horas de luz
13h 21m
Tomorrow will be 2m 41s shorter.
Creciente, 3% of the Moon is Illuminated
Hoy
Creciente
Sep 2
Cuarto creciente
Sep 8
Luna llena
Sep 15
Cuarto menguante
Sep 24
Nueva

Extremos de hoy

Máximos del estado Bajos del estado

Community

WunderPhotos

Upload Photos

1,747,657 ¡fotos cargadas!

Nearby

Grosos de nieve

Estación Profundido Altura
No tenemos constancia de nieve nueva.

Actividad de terremotos

Ciudad Distance Mag. Tiempo y dato
No hay informes recientes de la actividad sísmica.
Magnitud mínima muestra es 2,5.

Temperaturas de aguas costeras

Lugar Temperatura
Sin partes meteorológicos de las estaciones

Estaciones meteorológicas cercanas